Time;durP1;ratioP1;P1;durP2;ratioP2;P2;SDS_P1;SDS_P2;PMS_P1;PMS_P2;Temp;Humidity;BMP_temperature;BMP_pressure;BME280_temperature;BME280_humidity;BME280_pressure;Samples;Min_cycle;Max_cycle;Signal;HPM_P1;HPM_P2
2021/03/25 00:02:03;;;;;;;9.40;5.17;;;1.10;99.90;;;;;;5090301;28;20032;-73
2021/03/25 00:04:29;;;;;;;11.93;4.97;;;1.10;99.90;;;;;;5090595;28;20071;-73
2021/03/25 00:06:58;;;;;;;13.83;5.20;;;1.10;99.90;;;;;;5090217;28;20055;-72
2021/03/25 00:09:25;;;;;;;10.43;5.17;;;1.10;99.90;;;;;;5092545;28;20031;-72
2021/03/25 00:11:51;;;;;;;8.57;4.63;;;1.10;99.90;;;;;;5092386;28;20106;-72
2021/03/25 00:14:18;;;;;;;7.40;5.23;;;1.10;99.90;;;;;;5079795;28;20020;-72
2021/03/25 00:16:43;;;;;;;12.40;6.33;;;1.00;99.90;;;;;;5072900;28;20407;-73
2021/03/25 00:19:10;;;;;;;8.97;5.60;;;1.00;99.90;;;;;;5092344;28;20028;-73
2021/03/25 00:21:36;;;;;;;9.33;5.30;;;1.00;99.90;;;;;;5091187;28;20024;-73
2021/03/25 00:24:04;;;;;;;9.90;5.20;;;1.00;99.90;;;;;;5090280;28;20183;-73
2021/03/25 00:26:30;;;;;;;7.73;4.83;;;1.00;99.90;;;;;;5090196;28;20042;-73
2021/03/25 00:28:55;;;;;;;8.20;5.00;;;1.00;99.90;;;;;;5102981;28;20107;-73
2021/03/25 00:31:21;;;;;;;8.67;4.63;;;1.00;99.90;;;;;;5090203;28;20024;-73
2021/03/25 00:33:47;;;;;;;9.00;4.07;;;1.00;99.90;;;;;;5089932;28;20074;-73
2021/03/25 00:36:12;;;;;;;9.93;4.60;;;0.90;99.90;;;;;;5090078;28;20028;-73
2021/03/25 00:38:38;;;;;;;10.50;4.50;;;0.90;99.90;;;;;;5089861;28;20517;-73
2021/03/25 00:41:04;;;;;;;9.13;4.50;;;1.00;99.90;;;;;;5089841;28;20034;-73
2021/03/25 00:43:30;;;;;;;6.30;4.20;;;0.90;99.90;;;;;;5098669;28;20032;-73
2021/03/25 00:45:56;;;;;;;9.20;4.20;;;0.90;99.90;;;;;;5091895;28;20028;-73
2021/03/25 00:48:23;;;;;;;12.27;3.97;;;1.00;99.90;;;;;;5072092;28;20020;-73
2021/03/25 00:50:55;;;;;;;8.37;4.43;;;1.00;99.90;;;;;;5089514;28;20024;-73
2021/03/25 00:53:28;;;;;;;6.60;4.13;;;1.00;99.90;;;;;;5089794;28;20028;-73
2021/03/25 00:55:55;;;;;;;7.77;4.30;;;1.00;99.90;;;;;;5089863;28;20368;-73
2021/03/25 00:58:21;;;;;;;7.93;4.10;;;1.00;99.90;;;;;;5089619;28;20050;-73
2021/03/25 01:00:48;;;;;;;6.83;4.20;;;1.00;99.90;;;;;;5090146;28;20030;-71
2021/03/25 01:03:16;;;;;;;6.83;4.00;;;1.00;99.90;;;;;;5091762;28;20031;-71
2021/03/25 01:05:42;;;;;;;8.00;3.80;;;1.00;99.90;;;;;;5101640;28;20115;-71
2021/03/25 01:08:10;;;;;;;6.83;3.80;;;1.00;99.90;;;;;;5089744;28;20536;-71
2021/03/25 01:10:45;;;;;;;10.57;3.87;;;1.00;99.90;;;;;;5089722;28;20123;-71
2021/03/25 01:13:17;;;;;;;5.32;3.42;;;1.00;99.90;;;;;;5097312;28;20053;-71
2021/03/25 01:15:42;;;;;;;4.93;3.50;;;1.10;99.90;;;;;;5089800;28;20024;-71
2021/03/25 01:18:09;;;;;;;6.83;3.87;;;1.20;99.90;;;;;;5089882;28;20035;-71
2021/03/25 01:20:38;;;;;;;4.20;2.90;;;1.20;99.90;;;;;;5089719;28;20088;-71
2021/03/25 01:23:05;;;;;;;4.40;2.97;;;1.30;99.90;;;;;;5089625;28;20052;-72
2021/03/25 01:25:33;;;;;;;6.20;3.20;;;1.40;99.90;;;;;;5089725;28;20048;-71
2021/03/25 01:28:00;;;;;;;8.37;3.43;;;1.50;99.90;;;;;;5071503;28;20024;-71
2021/03/25 01:30:28;;;;;;;5.20;3.50;;;1.60;99.90;;;;;;5089913;28;20106;-71
2021/03/25 01:32:55;;;;;;;6.80;3.70;;;1.60;99.90;;;;;;5089528;28;20114;-72
2021/03/25 01:35:21;;;;;;;8.27;3.53;;;1.70;99.90;;;;;;5089653;28;20441;-71
2021/03/25 01:37:48;;;;;;;7.03;3.83;;;1.60;99.90;;;;;;5089212;28;20070;-71
2021/03/25 01:40:14;;;;;;;8.47;3.73;;;1.60;99.90;;;;;;5069816;28;20028;-71
2021/03/25 01:42:39;;;;;;;7.37;3.70;;;1.50;99.90;;;;;;5089358;28;20175;-71
2021/03/25 01:45:29;;;;;;;8.37;3.67;;;1.50;99.90;;;;;;5089429;28;20020;-71
2021/03/25 01:48:00;;;;;;;4.97;3.63;;;1.40;99.90;;;;;;5089443;28;20038;-71
2021/03/25 01:50:26;;;;;;;6.90;3.20;;;1.50;99.90;;;;;;5089335;28;20480;-71
2021/03/25 01:52:52;;;;;;;9.03;3.50;;;1.50;99.90;;;;;;5089590;28;20035;-71
2021/03/25 01:55:20;;;;;;;4.20;2.90;;;1.50;99.90;;;;;;5090373;28;20028;-72
2021/03/25 01:58:30;;;;;;;5.53;3.03;;;1.50;99.90;;;;;;5101846;28;20463;-71
2021/03/25 02:01:10;;;;;;;5.60;2.70;;;1.50;99.90;;;;;;5079949;28;20024;-71
2021/03/25 02:04:16;;;;;;;7.03;2.83;;;1.60;99.90;;;;;;5092708;28;20020;-71
2021/03/25 02:07:04;;;;;;;4.07;2.70;;;1.70;99.90;;;;;;5092947;28;20066;-71
2021/03/25 02:09:57;;;;;;;3.60;2.40;;;1.90;99.90;;;;;;5093062;28;20016;-71
2021/03/25 02:12:32;;;;;;;6.60;2.50;;;1.90;99.90;;;;;;5092435;28;21868;-72
2021/03/25 02:15:15;;;;;;;3.85;2.80;;;2.00;99.90;;;;;;5092726;28;20107;-71
2021/03/25 02:17:58;;;;;;;5.43;2.40;;;1.90;99.90;;;;;;5092334;28;20031;-71
2021/03/25 02:20:48;;;;;;;4.80;2.40;;;2.00;99.90;;;;;;5074258;28;20475;-71
2021/03/25 02:23:32;;;;;;;4.80;2.50;;;2.00;99.90;;;;;;5100182;28;20372;-71
2021/03/25 02:26:40;;;;;;;4.17;2.37;;;2.00;99.90;;;;;;5095861;28;20024;-71
2021/03/25 02:29:38;;;;;;;3.30;2.10;;;2.00;99.90;;;;;;5086961;28;20055;-71
2021/03/25 02:32:10;;;;;;;5.67;2.37;;;2.10;99.90;;;;;;5083138;28;20021;-71
2021/03/25 02:34:40;;;;;;;4.30;2.53;;;2.00;99.90;;;;;;5092326;28;20072;-71
2021/03/25 02:37:11;;;;;;;4.90;2.60;;;2.00;99.90;;;;;;5092320;28;20408;-71
2021/03/25 02:40:19;;;;;;;3.27;2.10;;;2.00;99.90;;;;;;5074147;28;20400;-71
2021/03/25 02:42:48;;;;;;;5.47;3.17;;;2.00;99.90;;;;;;5049552;28;20485;-71
2021/03/25 02:45:34;;;;;;;5.87;2.57;;;2.00;99.90;;;;;;5049737;28;20052;-71
2021/03/25 02:48:10;;;;;;;4.10;2.00;;;2.00;99.90;;;;;;5049538;28;20111;-71
2021/03/25 02:50:55;;;;;;;3.60;2.03;;;2.00;99.90;;;;;;5049694;28;20037;-71
2021/03/25 02:53:32;;;;;;;4.60;2.17;;;2.00;99.90;;;;;;5049427;28;20029;-71
2021/03/25 02:56:04;;;;;;;4.17;2.40;;;2.00;99.90;;;;;;5049279;28;20104;-71
2021/03/25 02:58:30;;;;;;;3.50;2.00;;;1.90;99.90;;;;;;5049814;28;20140;-71
2021/03/25 03:01:03;;;;;;;7.67;2.90;;;1.90;99.90;;;;;;5049726;28;20120;-71
2021/03/25 03:03:36;;;;;;;4.17;2.20;;;1.90;99.90;;;;;;5049045;28;20033;-71
2021/03/25 03:06:04;;;;;;;4.03;2.17;;;1.90;99.90;;;;;;5049259;28;20029;-71
2021/03/25 03:08:39;;;;;;;5.23;2.50;;;1.80;99.90;;;;;;5048752;28;20080;-71
2021/03/25 03:11:11;;;;;;;;;;;1.80;99.90;;;;;;5051658;28;20029;-71
2021/03/25 03:13:45;;;;;;;7.40;2.10;;;1.80;99.90;;;;;;5087547;28;20217;-71
2021/03/25 03:16:16;;;;;;;4.63;2.43;;;1.80;99.90;;;;;;5092625;28;20375;-71
2021/03/25 03:18:51;;;;;;;4.03;2.30;;;1.90;99.90;;;;;;5087181;28;20026;-71
2021/03/25 03:21:23;;;;;;;4.47;2.00;;;1.90;99.90;;;;;;5091424;28;20020;-71
2021/03/25 03:23:50;;;;;;;3.87;2.23;;;1.80;99.90;;;;;;5091334;28;20077;-71
2021/03/25 03:26:20;;;;;;;3.27;1.90;;;1.80;99.90;;;;;;5099086;28;20027;-71
2021/03/25 03:28:49;;;;;;;2.80;1.90;;;1.80;99.90;;;;;;5091102;28;20027;-71
2021/03/25 03:31:29;;;;;;;4.17;2.13;;;1.70;99.90;;;;;;5091296;28;20024;-71
2021/03/25 03:34:01;;;;;;;4.07;2.00;;;1.70;99.90;;;;;;5091187;28;20368;-71
2021/03/25 03:36:28;;;;;;;6.10;2.20;;;1.60;99.90;;;;;;5091403;28;20667;-71
2021/03/25 03:39:16;;;;;;;4.10;2.10;;;1.60;99.90;;;;;;5091235;28;20132;-71
2021/03/25 03:42:02;;;;;;;6.23;2.50;;;1.50;99.90;;;;;;5091161;28;20415;-71
2021/03/25 03:44:30;;;;;;;2.83;2.07;;;1.50;99.90;;;;;;5091058;28;20028;-71
2021/03/25 03:46:58;;;;;;;3.13;2.07;;;1.40;99.90;;;;;;5090994;28;20495;-71
2021/03/25 03:49:44;;;;;;;3.67;2.30;;;1.30;99.90;;;;;;5090887;28;20024;-71
2021/03/25 03:52:22;;;;;;;2.83;2.07;;;1.20;99.90;;;;;;5077969;28;20024;-71
2021/03/25 03:54:53;;;;;;;6.40;2.33;;;1.20;99.90;;;;;;5090552;28;20038;-71
2021/03/25 03:57:58;;;;;;;3.57;2.13;;;1.20;99.90;;;;;;5072596;28;20028;-71
2021/03/25 04:00:44;;;;;;;4.63;2.57;;;1.10;99.90;;;;;;5090387;28;20032;-71
2021/03/25 04:03:16;;;;;;;5.90;2.57;;;1.00;99.90;;;;;;5098554;28;20506;-71
2021/03/25 04:05:45;;;;;;;4.17;2.10;;;1.00;99.90;;;;;;5076911;28;20085;-71
2021/03/25 04:08:28;;;;;;;5.67;2.57;;;0.90;99.90;;;;;;5090526;28;20457;-71
2021/03/25 04:11:20;;;;;;;4.50;2.17;;;0.90;99.90;;;;;;5090698;28;20020;-71
2021/03/25 04:13:54;;;;;;;7.63;2.70;;;0.90;99.90;;;;;;5068638;28;20028;-71
2021/03/25 04:16:25;;;;;;;6.10;2.67;;;0.80;99.90;;;;;;5091163;28;20499;-71
2021/03/25 04:19:01;;;;;;;7.10;2.80;;;0.80;99.90;;;;;;5089949;28;20030;-71
2021/03/25 04:21:32;;;;;;;6.30;2.70;;;0.70;99.90;;;;;;5096733;28;20445;-71
2021/03/25 04:24:02;;;;;;;4.13;2.83;;;0.70;99.90;;;;;;5093017;28;20052;-71
2021/03/25 04:26:49;;;;;;;7.67;3.13;;;0.70;99.90;;;;;;5089892;28;20307;-71
2021/03/25 04:29:26;;;;;;;4.43;2.90;;;0.70;99.90;;;;;;5089716;28;20485;-71
2021/03/25 04:31:51;;;;;;;6.10;3.40;;;0.70;99.90;;;;;;5090003;28;20024;-71
2021/03/25 04:34:17;;;;;;;7.90;3.00;;;0.70;99.90;;;;;;5089988;28;20027;-71
2021/03/25 04:36:45;;;;;;;5.30;3.00;;;0.60;99.90;;;;;;5099068;28;20019;-71
2021/03/25 04:39:14;;;;;;;3.93;2.83;;;0.60;99.90;;;;;;5093648;28;20044;-71
2021/03/25 04:41:42;;;;;;;4.17;2.40;;;0.60;99.90;;;;;;5090169;28;20020;-71
2021/03/25 04:44:35;;;;;;;5.07;2.93;;;0.60;99.90;;;;;;5071566;28;20472;-71
2021/03/25 04:47:23;;;;;;;6.30;3.10;;;0.60;99.90;;;;;;5090275;28;20024;-71
2021/03/25 04:49:56;;;;;;;6.63;3.67;;;0.50;99.90;;;;;;5090073;28;20031;-71
2021/03/25 04:52:25;;;;;;;6.60;3.63;;;0.50;99.90;;;;;;5071921;28;20039;-71
2021/03/25 04:54:51;;;;;;;6.80;3.70;;;0.50;99.90;;;;;;5089825;28;20040;-71
2021/03/25 04:57:37;;;;;;;18.10;7.47;;;0.50;99.90;;;;;;5071956;28;20354;-70
2021/03/25 05:00:15;;;;;;;15.70;5.37;;;0.50;99.90;;;;;;5101268;28;20032;-71
2021/03/25 05:02:42;;;;;;;9.93;5.00;;;0.60;99.90;;;;;;5089990;28;20098;-70
2021/03/25 05:05:13;;;;;;;8.67;4.70;;;0.60;99.90;;;;;;5071736;28;20031;-70
2021/03/25 05:07:40;;;;;;;7.43;3.80;;;0.70;99.90;;;;;;5071938;28;20400;-70
2021/03/25 05:10:39;;;;;;;8.73;4.97;;;0.70;99.90;;;;;;5089819;28;20051;-70
2021/03/25 05:13:17;;;;;;;10.23;4.57;;;0.70;99.90;;;;;;5056534;28;20403;-67
2021/03/25 05:15:43;;;;;;;11.53;4.17;;;0.80;99.90;;;;;;5089728;28;20027;-70
2021/03/25 05:18:23;;;;;;;6.47;3.43;;;0.80;99.90;;;;;;5090252;28;20024;-70
2021/03/25 05:21:12;;;;;;;7.83;3.20;;;0.80;99.90;;;;;;5089936;28;20028;-71
2021/03/25 05:24:05;;;;;;;4.40;2.80;;;0.80;99.90;;;;;;5089454;28;20072;-70
2021/03/25 05:26:38;;;;;;;5.27;2.93;;;0.90;99.90;;;;;;5071358;28;20796;-72
2021/03/25 05:29:06;;;;;;;4.77;2.87;;;0.90;99.90;;;;;;5088512;28;20038;-71
2021/03/25 05:31:34;;;;;;;4.33;2.63;;;0.90;99.90;;;;;;5093165;28;20035;-71
2021/03/25 05:34:05;;;;;;;7.70;2.83;;;1.00;99.90;;;;;;5092562;28;20059;-71
2021/03/25 05:36:31;;;;;;;4.33;2.33;;;1.00;99.90;;;;;;5092436;28;20020;-71
2021/03/25 05:38:58;;;;;;;4.83;2.37;;;1.10;99.90;;;;;;5074016;28;20048;-71
2021/03/25 05:41:41;;;;;;;4.67;2.30;;;1.10;99.90;;;;;;5092396;28;20434;-73
2021/03/25 05:44:45;;;;;;;3.30;2.47;;;1.20;99.90;;;;;;5084712;28;20033;-71
2021/03/25 05:47:10;;;;;;;3.10;2.20;;;1.30;99.90;;;;;;5075414;28;20028;-71
2021/03/25 05:49:40;;;;;;;4.23;2.40;;;1.40;99.90;;;;;;5089785;28;20035;-71
2021/03/25 05:52:49;;;;;;;4.03;2.10;;;1.40;99.90;;;;;;5092409;28;20028;-71
2021/03/25 05:55:47;;;;;;;3.63;2.30;;;1.50;99.90;;;;;;4989540;28;20034;-71
2021/03/25 05:58:41;;;;;;;5.33;2.50;;;1.70;99.90;;;;;;4990033;28;20033;-71
2021/03/25 06:01:30;;;;;;;6.27;2.20;;;1.80;99.90;;;;;;5080263;28;20477;-68
2021/03/25 06:04:01;;;;;;;5.47;2.30;;;1.90;99.90;;;;;;5092067;28;20392;-71
2021/03/25 06:06:42;;;;;;;11.20;3.47;;;2.00;99.90;;;;;;5089732;28;20190;-71
2021/03/25 06:09:33;;;;;;;7.67;2.53;;;2.10;99.90;;;;;;5092671;28;20024;-71
2021/03/25 06:12:09;;;;;;;5.23;2.90;;;2.20;99.90;;;;;;5089208;28;20107;-71
2021/03/25 06:14:49;;;;;;;6.17;2.67;;;2.30;99.90;;;;;;5084430;28;20051;-71
2021/03/25 06:17:44;;;;;;;8.83;3.00;;;2.40;99.90;;;;;;5099259;28;20081;-71
2021/03/25 06:20:22;;;;;;;8.97;2.90;;;2.50;99.90;;;;;;5094659;28;20032;-71
2021/03/25 06:23:03;;;;;;;10.63;3.10;;;2.60;99.90;;;;;;5091544;28;20110;-71
2021/03/25 06:26:09;;;;;;;7.53;2.70;;;2.70;99.90;;;;;;5098254;28;20089;-71
2021/03/25 06:28:46;;;;;;;5.60;2.40;;;2.80;99.90;;;;;;5092528;28;20041;-71
2021/03/25 06:31:16;;;;;;;11.53;3.23;;;2.90;99.90;;;;;;5088644;28;20077;-71
2021/03/25 06:34:15;;;;;;;8.37;2.90;;;3.00;99.90;;;;;;5091689;28;20032;-71
2021/03/25 06:36:44;;;;;;;7.13;2.93;;;3.10;99.90;;;;;;5088627;28;20036;-78
2021/03/25 06:39:19;;;;;;;8.37;2.70;;;3.30;99.90;;;;;;5092651;28;20101;-79
2021/03/25 06:42:07;;;;;;;9.38;3.13;;;3.40;99.90;;;;;;5080192;28;20028;-80
2021/03/25 06:44:50;;;;;;;4.43;2.40;;;3.60;99.90;;;;;;5080494;28;20032;-79
2021/03/25 06:47:33;;;;;;;4.93;2.20;;;3.80;99.90;;;;;;5095541;28;20325;-80
2021/03/25 06:50:02;;;;;;;3.50;2.30;;;4.00;99.90;;;;;;5092565;28;20023;-80
2021/03/25 06:52:33;;;;;;;6.87;2.70;;;4.10;99.90;;;;;;5103083;28;20042;-80
2021/03/25 06:55:10;;;;;;;4.67;2.20;;;4.20;99.90;;;;;;5095761;28;20032;-81
2021/03/25 06:57:54;;;;;;;7.50;2.17;;;4.40;99.90;;;;;;5092124;28;20445;-82
2021/03/25 07:00:23;;;;;;;6.73;2.20;;;4.50;99.90;;;;;;5075290;28;20031;-72
2021/03/25 07:02:49;;;;;;;4.00;2.00;;;4.70;99.90;;;;;;5092837;28;20028;-71
2021/03/25 07:05:27;;;;;;;6.33;2.10;;;4.80;99.90;;;;;;5091409;28;20034;-71
2021/03/25 07:08:19;;;;;;;5.73;1.87;;;5.00;99.90;;;;;;5084344;28;20579;-71
2021/03/25 07:10:49;;;;;;;5.47;2.27;;;5.10;99.90;;;;;;5088938;28;20024;-71
2021/03/25 07:13:19;;;;;;;6.63;2.20;;;5.30;99.90;;;;;;5073648;28;20020;-71
2021/03/25 07:15:46;;;;;;;12.53;2.50;;;5.50;99.90;;;;;;5073842;28;20103;-82
2021/03/25 07:18:29;;;;;;;6.53;2.40;;;5.70;99.90;;;;;;5092044;28;20020;-82
2021/03/25 07:21:33;;;;;;;10.87;2.40;;;5.80;99.90;;;;;;5092194;28;20051;-83
2021/03/25 07:24:03;;;;;;;6.53;2.33;;;6.00;99.90;;;;;;5091387;28;20046;-82
2021/03/25 07:26:37;;;;;;;9.20;2.63;;;6.20;99.90;;;;;;5091652;28;20012;-82
2021/03/25 07:29:12;;;;;;;7.83;2.30;;;6.30;99.90;;;;;;5091365;28;20032;-82
2021/03/25 07:31:57;;;;;;;5.05;2.28;;;6.50;99.90;;;;;;5091997;28;20023;-82
2021/03/25 07:34:30;;;;;;;7.93;3.00;;;6.70;99.90;;;;;;5091401;28;20076;-82
2021/03/25 07:36:57;;;;;;;5.63;2.20;;;6.90;99.90;;;;;;5096674;28;20031;-82
2021/03/25 07:39:31;;;;;;;8.20;2.37;;;7.00;99.90;;;;;;5094075;28;20712;-83
2021/03/25 07:41:58;;;;;;;5.80;2.07;;;7.20;99.90;;;;;;5092196;28;20020;-82
2021/03/25 07:44:29;;;;;;;7.43;2.43;;;7.40;99.90;;;;;;5074071;28;20441;-82
2021/03/25 07:47:01;;;;;;;6.47;2.37;;;7.50;99.90;;;;;;5073854;28;20020;-82
2021/03/25 07:49:37;;;;;;;4.30;2.00;;;7.60;99.90;;;;;;5092794;28;20031;-83
2021/03/25 07:52:06;;;;;;;8.53;2.90;;;7.90;99.90;;;;;;5091946;28;20028;-83
2021/03/25 07:54:44;;;;;;;7.47;2.20;;;8.10;99.90;;;;;;5091757;28;20115;-82
2021/03/25 07:57:13;;;;;;;4.07;1.77;;;8.20;99.90;;;;;;5094600;28;20507;-82
2021/03/25 07:59:46;;;;;;;6.03;2.33;;;8.50;99.90;;;;;;5081141;28;20031;-82
2021/03/25 08:02:27;;;;;;;5.83;2.23;;;8.60;99.90;;;;;;5078784;28;20024;-82
2021/03/25 08:04:53;;;;;;;10.70;2.50;;;8.70;99.90;;;;;;5092189;28;20028;-83
2021/03/25 08:07:20;;;;;;;6.80;2.60;;;8.80;99.90;;;;;;5096144;28;20032;-82
2021/03/25 08:09:55;;;;;;;10.27;2.67;;;8.90;99.90;;;;;;5096796;28;20028;-83
2021/03/25 08:12:33;;;;;;;9.83;2.63;;;9.00;99.90;;;;;;5101494;28;20116;-82
2021/03/25 08:15:18;;;;;;;5.23;2.50;;;9.20;99.90;;;;;;5092855;28;20042;-72
2021/03/25 08:17:54;;;;;;;9.40;3.20;;;9.40;99.90;;;;;;5083101;28;20416;-72
2021/03/25 08:20:32;;;;;;;10.87;3.03;;;9.40;99.90;;;;;;5090445;28;20024;-72
2021/03/25 08:23:22;;;;;;;9.67;3.27;;;9.70;99.60;;;;;;5090633;28;20027;-72
2021/03/25 08:26:00;;;;;;;7.93;3.93;;;9.80;97.90;;;;;;5072261;28;20016;-72
2021/03/25 08:28:42;;;;;;;8.27;3.53;;;10.00;95.40;;;;;;5072097;28;20054;-72
2021/03/25 08:31:41;;;;;;;9.17;3.87;;;10.10;94.30;;;;;;5074116;28;20027;-82
2021/03/25 08:34:17;;;;;;;8.67;4.17;;;10.20;93.40;;;;;;5072045;28;20074;-82
2021/03/25 08:37:00;;;;;;;8.10;4.60;;;10.40;92.40;;;;;;5091705;28;20051;-83
2021/03/25 08:39:51;;;;;;;7.10;3.80;;;10.50;92.50;;;;;;5090299;28;20034;-82
2021/03/25 08:42:37;;;;;;;6.93;3.73;;;10.60;92.70;;;;;;5082170;28;20024;-82
2021/03/25 08:45:32;;;;;;;7.47;3.83;;;10.70;92.10;;;;;;5083890;28;20024;-82
2021/03/25 08:48:03;;;;;;;7.88;4.45;;;10.80;92.20;;;;;;5090084;28;20081;-83
2021/03/25 08:50:34;;;;;;;8.30;4.40;;;11.00;91.60;;;;;;5093635;28;20028;-83
2021/03/25 08:53:06;;;;;;;11.77;4.63;;;11.10;91.80;;;;;;5092535;28;20024;-85
2021/03/25 08:55:37;;;;;;;8.17;4.23;;;11.30;89.50;;;;;;5096850;28;20028;-89
2021/03/25 08:58:21;;;;;;;8.53;4.53;;;11.40;88.40;;;;;;5091658;28;20028;-74
2021/03/25 09:00:51;;;;;;;11.40;4.90;;;11.60;87.60;;;;;;5082066;28;20054;-74
2021/03/25 09:03:25;;;;;;;13.67;5.07;;;11.70;87.60;;;;;;5091386;28;20024;-80
2021/03/25 09:06:00;;;;;;;12.23;5.30;;;11.80;87.90;;;;;;5096760;28;20085;-75
2021/03/25 09:08:28;;;;;;;8.52;5.43;;;11.80;85.10;;;;;;5096308;28;20028;-80
2021/03/25 09:11:02;;;;;;;9.17;5.07;;;11.90;83.90;;;;;;5096472;28;20032;-75
2021/03/25 09:13:30;;;;;;;9.95;5.25;;;11.90;84.40;;;;;;5097952;28;20028;-80
2021/03/25 09:16:05;;;;;;;9.20;5.32;;;12.00;83.90;;;;;;5084068;28;20118;-74
2021/03/25 09:18:31;;;;;;;10.63;6.22;;;12.10;83.70;;;;;;5095373;28;20054;-72
2021/03/25 09:21:13;;;;;;;11.73;5.68;;;12.20;82.40;;;;;;5093357;28;20028;-71
2021/03/25 09:24:03;;;;;;;11.68;6.38;;;12.40;82.00;;;;;;5093658;28;20100;-72
2021/03/25 09:26:29;;;;;;;14.05;5.93;;;12.50;83.40;;;;;;5102246;28;20024;-72
2021/03/25 09:29:07;;;;;;;14.27;6.88;;;12.60;82.30;;;;;;5093383;28;20016;-72
2021/03/25 09:31:37;;;;;;;15.45;8.82;;;12.70;82.00;;;;;;5093396;28;20020;-72
2021/03/25 09:34:11;;;;;;;13.27;8.20;;;13.00;82.90;;;;;;5095256;28;20028;-74
2021/03/25 09:36:45;;;;;;;17.70;9.13;;;13.20;79.20;;;;;;5109764;28;20039;-87
2021/03/25 09:39:20;;;;;;;16.17;9.57;;;13.50;80.50;;;;;;5056128;28;20489;-87
2021/03/25 09:41:46;;;;;;;13.52;8.45;;;13.70;75.90;;;;;;5055190;28;20086;-87
2021/03/25 09:44:12;;;;;;;19.13;9.80;;;13.90;74.00;;;;;;5057059;28;20040;-88
2021/03/25 09:47:07;;;;;;;15.52;8.27;;;14.10;74.30;;;;;;5055035;28;20013;-72
2021/03/25 09:49:38;;;;;;;15.93;8.27;;;14.20;72.30;;;;;;5055642;28;20389;-88
2021/03/25 09:52:16;;;;;;;19.02;8.52;;;14.40;69.70;;;;;;5057628;28;20090;-89
2021/03/25 09:54:57;;;;;;;13.98;7.35;;;14.50;69.80;;;;;;5057429;28;20009;-87
2021/03/25 09:57:29;;;;;;;12.85;7.93;;;14.60;69.90;;;;;;5055841;28;20123;-87
2021/03/25 10:00:27;;;;;;;14.07;8.25;;;14.80;70.10;;;;;;5054387;28;20021;-88
2021/03/25 10:02:59;;;;;;;16.45;7.93;;;15.10;66.50;;;;;;5026209;28;20587;-75
2021/03/25 10:05:28;;;;;;;15.93;7.60;;;15.30;66.70;;;;;;5055034;28;20029;-76
2021/03/25 10:08:09;;;;;;;16.15;8.48;;;15.40;67.90;;;;;;5052601;28;20017;-76
2021/03/25 10:10:54;;;;;;;18.35;8.05;;;15.50;64.80;;;;;;5052327;28;20024;-75
2021/03/25 10:13:44;;;;;;;12.63;8.30;;;15.60;66.60;;;;;;5052263;28;20033;-75
2021/03/25 10:16:30;;;;;;;13.93;8.50;;;15.80;63.80;;;;;;5051902;28;20029;-75
2021/03/25 10:18:59;;;;;;;15.52;8.35;;;15.80;61.80;;;;;;5052291;28;20028;-75
2021/03/25 10:21:56;;;;;;;13.55;7.68;;;15.80;60.70;;;;;;5052163;28;20028;-75
2021/03/25 10:24:22;;;;;;;15.27;7.18;;;16.10;61.70;;;;;;5038828;28;20134;-75
2021/03/25 10:26:49;;;;;;;13.73;7.28;;;15.90;64.90;;;;;;5059310;28;20743;-75
2021/03/25 10:29:26;;;;;;;11.85;7.63;;;16.00;66.00;;;;;;5044659;28;20074;-75
2021/03/25 10:31:56;;;;;;;14.48;7.25;;;16.10;64.70;;;;;;5037841;28;20022;-72
2021/03/25 10:34:23;;;;;;;10.55;7.05;;;16.30;64.80;;;;;;5047547;28;20343;-72
2021/03/25 10:37:23;;;;;;;13.20;7.43;;;16.40;65.40;;;;;;5040270;28;20359;-72
2021/03/25 10:39:49;;;;;;;13.40;7.75;;;16.50;65.10;;;;;;5043549;28;20036;-72
2021/03/25 10:42:25;;;;;;;13.35;7.63;;;16.70;61.40;;;;;;5056313;28;20520;-75
2021/03/25 10:44:53;;;;;;;11.05;7.30;;;16.60;63.00;;;;;;5040606;28;20021;-75
2021/03/25 10:47:22;;;;;;;13.73;7.45;;;16.90;60.40;;;;;;5050194;28;20359;-75
2021/03/25 10:49:50;;;;;;;11.48;6.85;;;17.10;61.40;;;;;;5051816;28;20028;-75
2021/03/25 10:52:25;;;;;;;11.43;6.63;;;17.20;61.80;;;;;;5053600;28;20025;-72
2021/03/25 10:54:55;;;;;;;10.18;6.22;;;17.20;61.70;;;;;;5056119;28;20029;-72
2021/03/25 10:57:29;;;;;;;11.63;7.47;;;17.30;60.60;;;;;;5051766;28;20020;-72
2021/03/25 11:00:03;;;;;;;15.48;7.20;;;17.10;58.20;;;;;;5052735;28;20071;-90
2021/03/25 11:02:43;;;;;;;15.07;7.28;;;17.10;60.70;;;;;;5058517;28;20334;-90
2021/03/25 11:05:24;;;;;;;11.13;6.22;;;17.20;60.10;;;;;;5055452;28;20028;-81
2021/03/25 11:07:53;;;;;;;15.80;7.53;;;17.30;59.60;;;;;;5043277;28;20098;-82
2021/03/25 11:10:32;;;;;;;12.73;7.72;;;17.20;60.30;;;;;;5049167;28;20025;-75
2021/03/25 11:13:04;;;;;;;12.30;7.43;;;17.30;60.00;;;;;;5049056;28;20060;-75
2021/03/25 11:15:43;;;;;;;13.13;7.40;;;17.30;58.80;;;;;;5049713;28;20037;-75
2021/03/25 11:18:21;;;;;;;10.93;6.30;;;17.30;58.10;;;;;;5050989;28;20025;-75
2021/03/25 11:20:48;;;;;;;13.52;7.07;;;17.50;59.50;;;;;;5050723;28;20027;-75
2021/03/25 11:23:16;;;;;;;13.38;6.82;;;17.50;59.20;;;;;;5050579;28;20466;-77
2021/03/25 11:25:42;;;;;;;11.55;7.13;;;17.70;58.20;;;;;;5049463;28;20021;-75
2021/03/25 11:28:14;;;;;;;11.68;6.95;;;17.60;58.70;;;;;;5054866;28;20048;-91
2021/03/25 11:30:48;;;;;;;11.25;6.97;;;17.50;59.20;;;;;;5067295;28;20086;-91
2021/03/25 11:33:31;;;;;;;9.95;6.25;;;17.70;57.70;;;;;;5062944;28;20553;-91
2021/03/25 11:36:00;;;;;;;9.77;6.75;;;17.50;58.10;;;;;;5059302;28;20099;-72
2021/03/25 11:38:25;;;;;;;10.55;6.20;;;17.70;57.70;;;;;;5084048;28;20564;-72
2021/03/25 11:40:57;;;;;;;10.55;6.28;;;17.80;58.30;;;;;;5092324;28;20028;-68
2021/03/25 11:43:41;;;;;;;11.00;5.60;;;17.90;57.70;;;;;;5092579;28;20533;-68
2021/03/25 11:46:06;;;;;;;9.40;6.15;;;18.00;58.10;;;;;;5072635;28;20032;-71
2021/03/25 11:48:34;;;;;;;9.48;5.63;;;18.00;56.90;;;;;;5090553;28;20024;-71
2021/03/25 11:51:15;;;;;;;8.95;5.68;;;18.00;55.60;;;;;;5090434;28;20024;-71
2021/03/25 11:53:43;;;;;;;9.27;5.50;;;18.20;56.60;;;;;;5071863;28;20103;-73
2021/03/25 11:56:41;;;;;;;10.93;5.13;;;18.30;56.10;;;;;;5087409;28;20059;-69
2021/03/25 11:59:27;;;;;;;7.50;4.55;;;18.00;55.00;;;;;;5092844;28;20062;-71
2021/03/25 12:02:08;;;;;;;8.48;4.35;;;18.00;53.50;;;;;;5092116;28;20030;-71
2021/03/25 12:04:34;;;;;;;8.20;4.82;;;17.90;55.10;;;;;;5071847;28;20055;-74
2021/03/25 12:07:11;;;;;;;8.65;5.18;;;18.30;55.30;;;;;;5073405;28;20016;-73
2021/03/25 12:09:55;;;;;;;8.10;5.07;;;18.70;53.00;;;;;;5081335;28;20100;-74
2021/03/25 12:12:21;;;;;;;8.50;5.22;;;18.40;55.50;;;;;;5077326;28;20028;-74
2021/03/25 12:14:47;;;;;;;9.48;5.25;;;18.30;51.90;;;;;;5079903;28;20039;-73
2021/03/25 12:17:12;;;;;;;6.80;4.30;;;18.20;53.50;;;;;;5079699;28;20134;-74
2021/03/25 12:19:38;;;;;;;7.63;4.80;;;18.00;51.50;;;;;;5076314;28;20031;-73
2021/03/25 12:22:06;;;;;;;5.88;3.95;;;18.20;51.80;;;;;;5075307;28;20020;-73
2021/03/25 12:24:32;;;;;;;9.32;4.53;;;18.30;51.40;;;;;;5056820;28;20179;-83
2021/03/25 12:26:57;;;;;;;8.90;4.00;;;18.20;52.10;;;;;;5066598;28;20016;-84
2021/03/25 12:29:23;;;;;;;6.80;4.60;;;18.30;51.10;;;;;;5085471;28;20547;-78
2021/03/25 12:31:49;;;;;;;7.95;4.57;;;18.20;53.10;;;;;;5090382;28;20375;-79
2021/03/25 12:34:15;;;;;;;10.70;5.10;;;18.30;54.20;;;;;;5091933;28;20415;-83
2021/03/25 12:36:41;;;;;;;8.57;5.03;;;18.30;52.40;;;;;;5094100;28;20352;-83
2021/03/25 12:39:08;;;;;;;8.13;4.90;;;18.40;52.20;;;;;;5096223;28;20139;-84
2021/03/25 12:41:42;;;;;;;10.45;4.82;;;18.30;53.00;;;;;;5074351;28;20124;-84
2021/03/25 12:44:13;;;;;;;8.40;5.40;;;18.40;52.50;;;;;;5090642;28;20085;-74
2021/03/25 12:46:40;;;;;;;7.20;5.00;;;18.20;51.80;;;;;;5074387;28;20031;-84
2021/03/25 12:49:05;;;;;;;7.95;4.82;;;18.30;50.90;;;;;;5103025;28;20096;-83
2021/03/25 12:51:32;;;;;;;8.40;4.85;;;18.40;51.20;;;;;;5093631;28;20399;-84
2021/03/25 12:53:57;;;;;;;7.72;5.15;;;18.50;51.70;;;;;;5092599;28;20540;-84
2021/03/25 12:56:31;;;;;;;8.65;4.95;;;18.60;52.60;;;;;;5080108;28;20110;-84
2021/03/25 12:58:59;;;;;;;9.40;5.03;;;18.60;52.30;;;;;;5092412;28;20028;-83
2021/03/25 13:01:27;;;;;;;8.63;4.57;;;18.50;51.40;;;;;;5092411;28;20071;-84
2021/03/25 13:03:53;;;;;;;6.65;4.10;;;18.50;50.00;;;;;;5074162;28;20377;-83
2021/03/25 13:06:20;;;;;;;10.23;4.72;;;18.70;50.30;;;;;;5074398;28;20052;-84
2021/03/25 13:08:47;;;;;;;7.70;4.45;;;18.70;51.40;;;;;;5092279;28;20020;-84
2021/03/25 13:11:16;;;;;;;6.72;4.15;;;18.70;50.90;;;;;;5100893;28;20546;-83
2021/03/25 13:13:42;;;;;;;6.95;3.92;;;18.60;49.70;;;;;;5093840;28;20036;-84
2021/03/25 13:16:09;;;;;;;7.55;4.38;;;18.40;48.90;;;;;;5091982;28;20143;-84
2021/03/25 13:18:35;;;;;;;7.68;4.53;;;18.50;52.20;;;;;;5093909;28;20028;-84
2021/03/25 13:21:01;;;;;;;5.93;3.85;;;18.40;48.40;;;;;;5091888;28;20032;-83
2021/03/25 13:23:27;;;;;;;8.07;4.63;;;18.30;49.90;;;;;;5091909;28;20078;-82
2021/03/25 13:25:53;;;;;;;7.95;4.03;;;18.10;49.80;;;;;;5092021;28;20036;-82
2021/03/25 13:28:20;;;;;;;6.20;3.90;;;18.30;48.20;;;;;;5097186;28;20713;-82
2021/03/25 13:30:46;;;;;;;7.00;4.30;;;18.30;49.00;;;;;;5091285;28;20360;-82